sensor_id;sensor_type;location;lat;lon;timestamp;pressure;altitude;pressure_sealevel;temperature;humidity
71948;BME280;59820;55.076;38.766;2022-08-19T00:01:44;100441.31;;;21.06;46.57
71948;BME280;59820;55.076;38.766;2022-08-19T00:04:12;100420.25;;;20.91;46.53
71948;BME280;59820;55.076;38.766;2022-08-19T00:06:40;100433.81;;;20.99;46.45
71948;BME280;59820;55.076;38.766;2022-08-19T00:09:08;100408.94;;;20.88;46.43
71948;BME280;59820;55.076;38.766;2022-08-19T00:11:35;100436.22;;;20.93;46.48
71948;BME280;59820;55.076;38.766;2022-08-19T00:14:07;100455.97;;;20.92;46.15
71948;BME280;59820;55.076;38.766;2022-08-19T00:16:37;100455.50;;;20.87;46.79
71948;BME280;59820;55.076;38.766;2022-08-19T00:19:04;100456.94;;;20.91;46.37
71948;BME280;59820;55.076;38.766;2022-08-19T00:21:30;100455.28;;;20.90;46.30
71948;BME280;59820;55.076;38.766;2022-08-19T00:23:57;100445.91;;;20.84;46.98
71948;BME280;59820;55.076;38.766;2022-08-19T00:26:27;100464.28;;;20.89;46.99
71948;BME280;59820;55.076;38.766;2022-08-19T00:28:54;100468.69;;;20.90;47.09
71948;BME280;59820;55.076;38.766;2022-08-19T00:31:21;100466.25;;;20.87;46.80
71948;BME280;59820;55.076;38.766;2022-08-19T00:33:47;100467.25;;;20.86;46.61
71948;BME280;59820;55.076;38.766;2022-08-19T00:36:15;100471.88;;;20.83;47.19
71948;BME280;59820;55.076;38.766;2022-08-19T00:38:40;100476.41;;;20.83;46.87
71948;BME280;59820;55.076;38.766;2022-08-19T00:41:12;100476.81;;;20.78;46.60
71948;BME280;59820;55.076;38.766;2022-08-19T00:43:38;100460.09;;;20.65;47.90
71948;BME280;59820;55.076;38.766;2022-08-19T00:46:05;100477.38;;;20.72;47.92
71948;BME280;59820;55.076;38.766;2022-08-19T00:48:32;100481.41;;;20.66;48.33
71948;BME280;59820;55.076;38.766;2022-08-19T00:50:59;100469.63;;;20.58;47.90
71948;BME280;59820;55.076;38.766;2022-08-19T00:53:27;100453.94;;;20.53;47.51
71948;BME280;59820;55.076;38.766;2022-08-19T00:55:56;100476.03;;;20.66;47.67
71948;BME280;59820;55.076;38.766;2022-08-19T00:58:26;100467.13;;;20.66;47.79
71948;BME280;59820;55.076;38.766;2022-08-19T01:00:54;100465.56;;;20.63;48.00
71948;BME280;59820;55.076;38.766;2022-08-19T01:03:21;100469.25;;;20.62;48.10
71948;BME280;59820;55.076;38.766;2022-08-19T01:05:49;100474.00;;;20.59;48.49
71948;BME280;59820;55.076;38.766;2022-08-19T01:08:17;100476.97;;;20.56;49.08
71948;BME280;59820;55.076;38.766;2022-08-19T01:10:48;100473.41;;;20.55;49.20
71948;BME280;59820;55.076;38.766;2022-08-19T01:13:17;100463.94;;;20.51;49.43
71948;BME280;59820;55.076;38.766;2022-08-19T01:15:50;100471.28;;;20.49;49.66
71948;BME280;59820;55.076;38.766;2022-08-19T01:18:19;100458.13;;;20.36;49.88
71948;BME280;59820;55.076;38.766;2022-08-19T01:21:08;100474.38;;;20.44;50.28
71948;BME280;59820;55.076;38.766;2022-08-19T01:23:35;100468.84;;;20.36;50.46
71948;BME280;59820;55.076;38.766;2022-08-19T01:26:21;100460.84;;;20.25;50.63
71948;BME280;59820;55.076;38.766;2022-08-19T01:28:51;100478.22;;;20.30;50.79
71948;BME280;59820;55.076;38.766;2022-08-19T01:31:23;100492.50;;;20.31;51.19
71948;BME280;59820;55.076;38.766;2022-08-19T01:33:52;100490.78;;;20.30;51.19
71948;BME280;59820;55.076;38.766;2022-08-19T01:36:29;100472.09;;;20.19;51.39
71948;BME280;59820;55.076;38.766;2022-08-19T01:38:56;100480.06;;;20.30;51.25
71948;BME280;59820;55.076;38.766;2022-08-19T01:41:23;100477.78;;;20.25;52.00
71948;BME280;59820;55.076;38.766;2022-08-19T01:43:51;100486.69;;;20.26;51.64
71948;BME280;59820;55.076;38.766;2022-08-19T01:46:18;100481.00;;;20.19;51.73
71948;BME280;59820;55.076;38.766;2022-08-19T01:48:45;100486.22;;;20.21;51.75
71948;BME280;59820;55.076;38.766;2022-08-19T01:51:12;100484.63;;;20.18;52.17
71948;BME280;59820;55.076;38.766;2022-08-19T01:53:39;100488.34;;;20.06;52.78
71948;BME280;59820;55.076;38.766;2022-08-19T01:56:06;100475.09;;;19.83;53.30
71948;BME280;59820;55.076;38.766;2022-08-19T01:58:39;100486.06;;;19.80;53.58
71948;BME280;59820;55.076;38.766;2022-08-19T02:01:07;100485.44;;;19.76;53.61
71948;BME280;59820;55.076;38.766;2022-08-19T02:03:34;100472.38;;;19.62;53.96
71948;BME280;59820;55.076;38.766;2022-08-19T02:06:02;100476.13;;;19.59;54.11
71948;BME280;59820;55.076;38.766;2022-08-19T02:08:29;100489.41;;;19.61;54.57
71948;BME280;59820;55.076;38.766;2022-08-19T02:10:56;100484.31;;;19.58;54.60
71948;BME280;59820;55.076;38.766;2022-08-19T02:13:23;100485.41;;;19.55;54.69
71948;BME280;59820;55.076;38.766;2022-08-19T02:16:10;100489.88;;;19.55;54.87
71948;BME280;59820;55.076;38.766;2022-08-19T02:18:36;100488.91;;;19.56;55.20
71948;BME280;59820;55.076;38.766;2022-08-19T02:21:02;100488.91;;;19.56;55.50
71948;BME280;59820;55.076;38.766;2022-08-19T02:23:28;100474.59;;;19.45;55.61
71948;BME280;59820;55.076;38.766;2022-08-19T02:25:54;100495.63;;;19.50;55.26
71948;BME280;59820;55.076;38.766;2022-08-19T02:28:20;100491.91;;;19.41;55.31
71948;BME280;59820;55.076;38.766;2022-08-19T02:30:46;100483.88;;;19.41;55.34
71948;BME280;59820;55.076;38.766;2022-08-19T02:33:13;100501.59;;;19.54;55.21
71948;BME280;59820;55.076;38.766;2022-08-19T02:39:21;100493.94;;;19.49;55.90
71948;BME280;59820;55.076;38.766;2022-08-19T02:41:47;100498.44;;;19.48;55.60
71948;BME280;59820;55.076;38.766;2022-08-19T02:44:14;100499.75;;;19.54;55.45
71948;BME280;59820;55.076;38.766;2022-08-19T02:46:41;100484.94;;;19.50;55.56
71948;BME280;59820;55.076;38.766;2022-08-19T02:49:08;100482.50;;;19.47;56.05
71948;BME280;59820;55.076;38.766;2022-08-19T02:51:37;100502.31;;;19.56;56.16
71948;BME280;59820;55.076;38.766;2022-08-19T02:54:05;100498.66;;;19.57;55.58
71948;BME280;59820;55.076;38.766;2022-08-19T02:56:34;100505.19;;;19.64;55.70
71948;BME280;59820;55.076;38.766;2022-08-19T02:59:01;100494.00;;;19.70;54.59
71948;BME280;59820;55.076;38.766;2022-08-19T03:01:31;100501.25;;;19.79;54.52
71948;BME280;59820;55.076;38.766;2022-08-19T03:04:00;100494.22;;;19.78;54.23
71948;BME280;59820;55.076;38.766;2022-08-19T03:06:27;100504.50;;;19.94;54.06
71948;BME280;59820;55.076;38.766;2022-08-19T03:08:53;100495.16;;;19.89;53.87
71948;BME280;59820;55.076;38.766;2022-08-19T03:11:28;100507.78;;;19.98;53.88
71948;BME280;59820;55.076;38.766;2022-08-19T03:13:55;100507.50;;;20.01;53.75
71948;BME280;59820;55.076;38.766;2022-08-19T03:16:24;100504.44;;;20.06;53.32
71948;BME280;59820;55.076;38.766;2022-08-19T03:18:52;100510.13;;;20.12;53.33
71948;BME280;59820;55.076;38.766;2022-08-19T03:21:25;100503.81;;;20.13;53.42
71948;BME280;59820;55.076;38.766;2022-08-19T03:24:01;100504.13;;;20.20;53.34
71948;BME280;59820;55.076;38.766;2022-08-19T03:26:29;100490.41;;;20.13;53.04
71948;BME280;59820;55.076;38.766;2022-08-19T03:28:56;100498.22;;;20.26;53.10
71948;BME280;59820;55.076;38.766;2022-08-19T03:31:23;100504.47;;;20.27;52.96
71948;BME280;59820;55.076;38.766;2022-08-19T03:33:51;100488.75;;;20.22;53.23
71948;BME280;59820;55.076;38.766;2022-08-19T03:36:22;100500.66;;;20.29;53.02
71948;BME280;59820;55.076;38.766;2022-08-19T03:38:52;100502.25;;;20.32;53.36
71948;BME280;59820;55.076;38.766;2022-08-19T03:41:23;100495.56;;;20.26;53.13
71948;BME280;59820;55.076;38.766;2022-08-19T03:43:50;100501.00;;;20.36;52.92
71948;BME280;59820;55.076;38.766;2022-08-19T03:46:19;100487.31;;;20.39;53.15
71948;BME280;59820;55.076;38.766;2022-08-19T03:48:51;100488.75;;;20.43;53.23
71948;BME280;59820;55.076;38.766;2022-08-19T03:51:32;100498.81;;;20.51;53.30
71948;BME280;59820;55.076;38.766;2022-08-19T03:54:03;100492.00;;;20.47;53.41
71948;BME280;59820;55.076;38.766;2022-08-19T04:00:42;100500.66;;;20.50;53.72
71948;BME280;59820;55.076;38.766;2022-08-19T04:03:08;100510.13;;;20.55;53.17
71948;BME280;59820;55.076;38.766;2022-08-19T04:09:40;100517.72;;;20.71;52.87
71948;BME280;59820;55.076;38.766;2022-08-19T04:12:07;100521.84;;;20.75;52.84
71948;BME280;59820;55.076;38.766;2022-08-19T04:14:33;100522.03;;;20.83;52.65
71948;BME280;59820;55.076;38.766;2022-08-19T04:17:00;100529.25;;;20.92;52.38
71948;BME280;59820;55.076;38.766;2022-08-19T04:19:31;100524.91;;;21.01;52.27
71948;BME280;59820;55.076;38.766;2022-08-19T04:21:58;100505.22;;;20.91;52.47
71948;BME280;59820;55.076;38.766;2022-08-19T04:24:24;100535.84;;;21.19;52.42
71948;BME280;59820;55.076;38.766;2022-08-19T04:26:51;100535.03;;;21.28;51.47
71948;BME280;59820;55.076;38.766;2022-08-19T04:29:20;100540.16;;;21.41;51.62
71948;BME280;59820;55.076;38.766;2022-08-19T04:31:48;100536.78;;;21.49;51.28
71948;BME280;59820;55.076;38.766;2022-08-19T04:34:18;100520.09;;;21.45;50.94
71948;BME280;59820;55.076;38.766;2022-08-19T04:36:48;100529.06;;;21.56;50.84
71948;BME280;59820;55.076;38.766;2022-08-19T04:39:22;100529.22;;;21.64;50.90
71948;BME280;59820;55.076;38.766;2022-08-19T04:42:09;100525.25;;;21.78;50.45
71948;BME280;59820;55.076;38.766;2022-08-19T04:49:12;100525.84;;;22.01;49.98
71948;BME280;59820;55.076;38.766;2022-08-19T04:51:40;100529.22;;;22.03;50.01
71948;BME280;59820;55.076;38.766;2022-08-19T04:54:08;100525.13;;;21.99;50.27
71948;BME280;59820;55.076;38.766;2022-08-19T04:56:34;100520.03;;;21.96;50.16
71948;BME280;59820;55.076;38.766;2022-08-19T04:59:25;100523.00;;;21.93;50.37
71948;BME280;59820;55.076;38.766;2022-08-19T05:01:50;100532.75;;;21.94;50.56
71948;BME280;59820;55.076;38.766;2022-08-19T05:04:20;100534.16;;;21.98;50.20
71948;BME280;59820;55.076;38.766;2022-08-19T05:06:49;100532.34;;;22.08;50.00
71948;BME280;59820;55.076;38.766;2022-08-19T05:16:54;100534.69;;;22.31;49.33
71948;BME280;59820;55.076;38.766;2022-08-19T05:19:21;100514.75;;;22.33;49.71
71948;BME280;59820;55.076;38.766;2022-08-19T05:22:05;100525.63;;;22.51;49.58
71948;BME280;59820;55.076;38.766;2022-08-19T05:37:05;100527.53;;;22.79;48.51
71948;BME280;59820;55.076;38.766;2022-08-19T05:43:51;100508.03;;;22.77;48.96
71948;BME280;59820;55.076;38.766;2022-08-19T05:46:19;100510.56;;;22.78;48.65
71948;BME280;59820;55.076;38.766;2022-08-19T05:48:45;100519.53;;;22.97;48.71
71948;BME280;59820;55.076;38.766;2022-08-19T05:51:12;100525.38;;;22.92;47.80
71948;BME280;59820;55.076;38.766;2022-08-19T05:53:38;100524.22;;;22.95;47.79
71948;BME280;59820;55.076;38.766;2022-08-19T05:56:07;100539.09;;;22.99;48.06
71948;BME280;59820;55.076;38.766;2022-08-19T05:58:37;100525.09;;;22.85;47.83
71948;BME280;59820;55.076;38.766;2022-08-19T06:01:09;100541.63;;;23.00;48.12
71948;BME280;59820;55.076;38.766;2022-08-19T06:04:01;100541.16;;;23.05;48.08
71948;BME280;59820;55.076;38.766;2022-08-19T06:06:28;100526.88;;;23.04;48.45
71948;BME280;59820;55.076;38.766;2022-08-19T06:09:04;100527.88;;;23.03;48.30
71948;BME280;59820;55.076;38.766;2022-08-19T06:11:40;100534.94;;;23.04;48.15
71948;BME280;59820;55.076;38.766;2022-08-19T06:14:16;100495.50;;;22.85;48.31
71948;BME280;59820;55.076;38.766;2022-08-19T06:16:47;100520.56;;;22.96;48.22
71948;BME280;59820;55.076;38.766;2022-08-19T06:19:15;100543.34;;;23.01;48.17
71948;BME280;59820;55.076;38.766;2022-08-19T06:21:46;100544.47;;;22.99;47.89
71948;BME280;59820;55.076;38.766;2022-08-19T06:24:26;100543.47;;;23.00;48.15
71948;BME280;59820;55.076;38.766;2022-08-19T06:26:55;100553.94;;;23.03;48.05
71948;BME280;59820;55.076;38.766;2022-08-19T06:29:25;100552.81;;;23.06;47.99
71948;BME280;59820;55.076;38.766;2022-08-19T06:36:04;100553.88;;;23.23;47.92
71948;BME280;59820;55.076;38.766;2022-08-19T06:38:31;100516.56;;;23.00;47.56
71948;BME280;59820;55.076;38.766;2022-08-19T06:41:02;100559.81;;;23.26;47.59
71948;BME280;59820;55.076;38.766;2022-08-19T06:43:34;100553.53;;;23.35;47.36
71948;BME280;59820;55.076;38.766;2022-08-19T06:46:26;100564.09;;;23.47;47.02
71948;BME280;59820;55.076;38.766;2022-08-19T06:48:56;100566.19;;;23.53;47.36
71948;BME280;59820;55.076;38.766;2022-08-19T06:51:23;100563.25;;;23.46;46.85
71948;BME280;59820;55.076;38.766;2022-08-19T06:53:52;100552.22;;;23.40;47.34
71948;BME280;59820;55.076;38.766;2022-08-19T06:56:21;100552.31;;;23.48;47.28
71948;BME280;59820;55.076;38.766;2022-08-19T06:59:17;100552.56;;;23.54;47.00
71948;BME280;59820;55.076;38.766;2022-08-19T07:01:53;100550.19;;;23.51;47.63
71948;BME280;59820;55.076;38.766;2022-08-19T07:04:29;100537.09;;;23.38;46.79
71948;BME280;59820;55.076;38.766;2022-08-19T07:07:03;100551.94;;;23.43;46.95
71948;BME280;59820;55.076;38.766;2022-08-19T07:09:33;100542.72;;;23.45;47.02
71948;BME280;59820;55.076;38.766;2022-08-19T07:12:06;100556.44;;;23.70;46.57
71948;BME280;59820;55.076;38.766;2022-08-19T07:14:34;100551.97;;;23.79;47.13
71948;BME280;59820;55.076;38.766;2022-08-19T07:17:08;100539.41;;;23.87;46.49
71948;BME280;59820;55.076;38.766;2022-08-19T07:20:01;100553.31;;;24.11;46.12
71948;BME280;59820;55.076;38.766;2022-08-19T07:22:28;100552.06;;;24.23;45.68
71948;BME280;59820;55.076;38.766;2022-08-19T07:24:54;100552.84;;;24.33;45.26
71948;BME280;59820;55.076;38.766;2022-08-19T07:27:21;100538.47;;;24.33;44.64
71948;BME280;59820;55.076;38.766;2022-08-19T07:29:58;100548.94;;;24.54;43.75
71948;BME280;59820;55.076;38.766;2022-08-19T07:35:40;100546.06;;;24.55;42.63
71948;BME280;59820;55.076;38.766;2022-08-19T07:38:21;100553.78;;;24.50;42.63
71948;BME280;59820;55.076;38.766;2022-08-19T07:41:12;100561.34;;;24.65;42.33
71948;BME280;59820;55.076;38.766;2022-08-19T07:43:41;100540.94;;;24.62;42.75
71948;BME280;59820;55.076;38.766;2022-08-19T07:46:09;100549.59;;;24.74;42.28
71948;BME280;59820;55.076;38.766;2022-08-19T07:48:43;100567.19;;;24.86;42.15
71948;BME280;59820;55.076;38.766;2022-08-19T07:51:18;100554.53;;;24.79;41.89
71948;BME280;59820;55.076;38.766;2022-08-19T07:53:49;100573.63;;;24.85;41.63
71948;BME280;59820;55.076;38.766;2022-08-19T07:56:18;100571.59;;;24.87;41.11
71948;BME280;59820;55.076;38.766;2022-08-19T07:58:46;100557.56;;;24.84;41.00
71948;BME280;59820;55.076;38.766;2022-08-19T08:01:19;100556.78;;;24.92;41.17
71948;BME280;59820;55.076;38.766;2022-08-19T08:03:48;100557.56;;;24.84;40.69
71948;BME280;59820;55.076;38.766;2022-08-19T08:06:32;100573.81;;;24.92;40.40
71948;BME280;59820;55.076;38.766;2022-08-19T08:09:22;100574.75;;;25.09;40.22
71948;BME280;59820;55.076;38.766;2022-08-19T08:12:04;100568.19;;;25.12;39.84
71948;BME280;59820;55.076;38.766;2022-08-19T08:14:49;100568.06;;;25.21;39.49
71948;BME280;59820;55.076;38.766;2022-08-19T08:17:17;100558.63;;;25.26;39.18
71948;BME280;59820;55.076;38.766;2022-08-19T08:20:13;100564.63;;;25.46;38.55
71948;BME280;59820;55.076;38.766;2022-08-19T08:23:05;100579.72;;;25.65;38.59
71948;BME280;59820;55.076;38.766;2022-08-19T08:25:56;100556.44;;;25.80;37.73
71948;BME280;59820;55.076;38.766;2022-08-19T08:28:28;100563.53;;;25.81;36.85
71948;BME280;59820;55.076;38.766;2022-08-19T08:30:57;100541.91;;;25.81;36.90
71948;BME280;59820;55.076;38.766;2022-08-19T08:33:25;100532.63;;;26.00;36.71
71948;BME280;59820;55.076;38.766;2022-08-19T08:36:16;100551.22;;;26.36;35.45
71948;BME280;59820;55.076;38.766;2022-08-19T08:39:07;100562.75;;;26.30;35.63
71948;BME280;59820;55.076;38.766;2022-08-19T08:44:17;100548.22;;;26.31;35.31
71948;BME280;59820;55.076;38.766;2022-08-19T08:47:04;100563.59;;;26.39;34.63
71948;BME280;59820;55.076;38.766;2022-08-19T08:52:22;100554.81;;;26.37;33.90
71948;BME280;59820;55.076;38.766;2022-08-19T08:55:03;100553.94;;;26.36;33.93
71948;BME280;59820;55.076;38.766;2022-08-19T09:00:11;100524.66;;;25.74;33.18
71948;BME280;59820;55.076;38.766;2022-08-19T09:02:39;100555.47;;;26.06;33.75
71948;BME280;59820;55.076;38.766;2022-08-19T09:05:06;100536.00;;;25.94;33.42
71948;BME280;59820;55.076;38.766;2022-08-19T09:07:45;100559.22;;;26.21;33.76
71948;BME280;59820;55.076;38.766;2022-08-19T09:15:32;100543.25;;;25.94;33.88
71948;BME280;59820;55.076;38.766;2022-08-19T09:18:04;100563.94;;;26.03;33.78
71948;BME280;59820;55.076;38.766;2022-08-19T09:20:32;100563.75;;;26.13;33.70
71948;BME280;59820;55.076;38.766;2022-08-19T09:22:58;100536.50;;;25.98;33.96
71948;BME280;59820;55.076;38.766;2022-08-19T09:25:26;100555.47;;;26.14;34.10
71948;BME280;59820;55.076;38.766;2022-08-19T09:27:52;100566.13;;;26.40;33.20
71948;BME280;59820;55.076;38.766;2022-08-19T09:30:22;100559.53;;;26.43;33.09
71948;BME280;59820;55.076;38.766;2022-08-19T09:32:49;100572.03;;;26.52;33.32
71948;BME280;59820;55.076;38.766;2022-08-19T09:35:21;100576.91;;;26.65;32.60
71948;BME280;59820;55.076;38.766;2022-08-19T09:37:51;100579.50;;;26.75;33.15
71948;BME280;59820;55.076;38.766;2022-08-19T09:40:18;100548.16;;;26.81;32.64
71948;BME280;59820;55.076;38.766;2022-08-19T09:42:45;100560.41;;;27.16;33.16
71948;BME280;59820;55.076;38.766;2022-08-19T09:45:15;100573.00;;;27.40;32.75
71948;BME280;59820;55.076;38.766;2022-08-19T09:47:43;100578.63;;;27.39;32.48
71948;BME280;59820;55.076;38.766;2022-08-19T09:50:12;100576.84;;;27.54;32.64
71948;BME280;59820;55.076;38.766;2022-08-19T09:52:38;100584.88;;;27.71;32.74
71948;BME280;59820;55.076;38.766;2022-08-19T09:55:07;100586.22;;;27.98;31.77
71948;BME280;59820;55.076;38.766;2022-08-19T09:57:33;100579.56;;;28.09;31.20
71948;BME280;59820;55.076;38.766;2022-08-19T09:59:59;100581.25;;;28.10;30.91
71948;BME280;59820;55.076;38.766;2022-08-19T10:02:25;100586.75;;;28.02;31.04
71948;BME280;59820;55.076;38.766;2022-08-19T10:04:52;100587.25;;;27.97;31.17
71948;BME280;59820;55.076;38.766;2022-08-19T10:07:37;100582.47;;;27.76;31.22
71948;BME280;59820;55.076;38.766;2022-08-19T10:10:04;100560.47;;;27.71;31.20
71948;BME280;59820;55.076;38.766;2022-08-19T10:12:34;100587.63;;;27.94;31.39
71948;BME280;59820;55.076;38.766;2022-08-19T10:15:00;100593.88;;;28.03;31.56
71948;BME280;59820;55.076;38.766;2022-08-19T10:17:52;100576.56;;;28.04;31.66
71948;BME280;59820;55.076;38.766;2022-08-19T10:20:22;100584.16;;;28.08;30.87
71948;BME280;59820;55.076;38.766;2022-08-19T10:22:48;100601.16;;;28.25;31.50
71948;BME280;59820;55.076;38.766;2022-08-19T10:25:15;100596.41;;;28.42;30.59
71948;BME280;59820;55.076;38.766;2022-08-19T10:27:42;100596.22;;;28.67;30.73
71948;BME280;59820;55.076;38.766;2022-08-19T10:30:09;100594.47;;;28.74;30.31
71948;BME280;59820;55.076;38.766;2022-08-19T10:32:36;100609.00;;;28.82;30.03
71948;BME280;59820;55.076;38.766;2022-08-19T10:35:04;100611.81;;;29.03;30.09
71948;BME280;59820;55.076;38.766;2022-08-19T10:41:53;100612.78;;;29.25;30.10
71948;BME280;59820;55.076;38.766;2022-08-19T10:44:31;100601.13;;;29.17;30.44
71948;BME280;59820;55.076;38.766;2022-08-19T10:47:22;100605.03;;;28.69;30.93
71948;BME280;59820;55.076;38.766;2022-08-19T10:49:49;100594.88;;;28.48;30.83
71948;BME280;59820;55.076;38.766;2022-08-19T10:52:33;100606.25;;;28.67;30.69
71948;BME280;59820;55.076;38.766;2022-08-19T10:55:24;100610.66;;;28.68;30.90
71948;BME280;59820;55.076;38.766;2022-08-19T10:58:34;100613.22;;;28.61;31.42
71948;BME280;59820;55.076;38.766;2022-08-19T11:01:00;100608.97;;;28.43;31.73
71948;BME280;59820;55.076;38.766;2022-08-19T11:03:27;100613.41;;;28.21;31.55
71948;BME280;59820;55.076;38.766;2022-08-19T11:06:21;100625.00;;;28.15;31.93
71948;BME280;59820;55.076;38.766;2022-08-19T11:08:48;100613.47;;;28.13;31.97
71948;BME280;59820;55.076;38.766;2022-08-19T11:11:18;100607.19;;;28.13;31.65
71948;BME280;59820;55.076;38.766;2022-08-19T11:13:51;100611.41;;;28.15;31.47
71948;BME280;59820;55.076;38.766;2022-08-19T11:16:21;100622.97;;;28.32;31.24
71948;BME280;59820;55.076;38.766;2022-08-19T11:18:49;100627.03;;;28.36;31.37
71948;BME280;59820;55.076;38.766;2022-08-19T11:21:19;100603.28;;;28.15;31.83
71948;BME280;59820;55.076;38.766;2022-08-19T11:23:49;100613.28;;;28.15;31.88
71948;BME280;59820;55.076;38.766;2022-08-19T11:26:42;100620.09;;;28.10;31.70
71948;BME280;59820;55.076;38.766;2022-08-19T11:29:27;100619.66;;;27.99;32.24
71948;BME280;59820;55.076;38.766;2022-08-19T11:32:19;100620.63;;;27.74;32.48
71948;BME280;59820;55.076;38.766;2022-08-19T11:34:45;100620.16;;;27.63;32.63
71948;BME280;59820;55.076;38.766;2022-08-19T11:37:11;100626.53;;;27.47;33.22
71948;BME280;59820;55.076;38.766;2022-08-19T11:39:38;100595.47;;;27.09;33.53
71948;BME280;59820;55.076;38.766;2022-08-19T11:42:05;100625.22;;;27.26;33.56
71948;BME280;59820;55.076;38.766;2022-08-19T11:44:52;100617.16;;;27.09;33.59
71948;BME280;59820;55.076;38.766;2022-08-19T11:47:22;100633.88;;;27.13;33.53
71948;BME280;59820;55.076;38.766;2022-08-19T11:49:48;100626.13;;;27.02;33.68
71948;BME280;59820;55.076;38.766;2022-08-19T11:52:14;100632.88;;;27.06;33.82
71948;BME280;59820;55.076;38.766;2022-08-19T11:54:44;100635.63;;;26.98;34.61
71948;BME280;59820;55.076;38.766;2022-08-19T11:57:10;100632.09;;;26.89;34.48
71948;BME280;59820;55.076;38.766;2022-08-19T11:59:36;100643.75;;;26.89;34.61
71948;BME280;59820;55.076;38.766;2022-08-19T12:02:02;100638.72;;;26.78;35.39
71948;BME280;59820;55.076;38.766;2022-08-19T12:04:32;100643.13;;;26.71;35.64
71948;BME280;59820;55.076;38.766;2022-08-19T12:06:58;100629.22;;;26.49;35.60
71948;BME280;59820;55.076;38.766;2022-08-19T12:09:24;100641.22;;;26.38;35.54
71948;BME280;59820;55.076;38.766;2022-08-19T12:11:49;100648.16;;;26.33;35.88
71948;BME280;59820;55.076;38.766;2022-08-19T12:14:18;100649.16;;;26.23;36.26
71948;BME280;59820;55.076;38.766;2022-08-19T12:17:01;100618.03;;;26.03;36.47
71948;BME280;59820;55.076;38.766;2022-08-19T12:19:29;100628.19;;;26.09;36.54
71948;BME280;59820;55.076;38.766;2022-08-19T12:21:59;100646.78;;;26.20;36.50
71948;BME280;59820;55.076;38.766;2022-08-19T12:24:36;100640.66;;;26.10;36.59
71948;BME280;59820;55.076;38.766;2022-08-19T12:27:03;100639.66;;;26.11;36.72
71948;BME280;59820;55.076;38.766;2022-08-19T12:29:36;100644.44;;;26.17;36.26
71948;BME280;59820;55.076;38.766;2022-08-19T12:32:02;100640.19;;;26.06;36.03
71948;BME280;59820;55.076;38.766;2022-08-19T12:34:32;100634.94;;;26.05;35.95
71948;BME280;59820;55.076;38.766;2022-08-19T12:37:01;100660.97;;;26.14;36.27
71948;BME280;59820;55.076;38.766;2022-08-19T12:39:28;100657.25;;;26.07;36.49
71948;BME280;59820;55.076;38.766;2022-08-19T12:41:56;100660.66;;;26.09;35.78
71948;BME280;59820;55.076;38.766;2022-08-19T12:44:23;100643.47;;;25.92;35.65
71948;BME280;59820;55.076;38.766;2022-08-19T12:46:53;100652.09;;;25.87;36.43
71948;BME280;59820;55.076;38.766;2022-08-19T12:49:19;100641.59;;;25.76;36.10
71948;BME280;59820;55.076;38.766;2022-08-19T12:51:45;100637.50;;;25.64;36.00
71948;BME280;59820;55.076;38.766;2022-08-19T12:54:18;100639.50;;;25.62;35.96
71948;BME280;59820;55.076;38.766;2022-08-19T12:56:48;100645.59;;;25.55;36.60
71948;BME280;59820;55.076;38.766;2022-08-19T12:59:16;100665.69;;;25.61;36.33
71948;BME280;59820;55.076;38.766;2022-08-19T13:01:45;100650.44;;;25.52;36.67
71948;BME280;59820;55.076;38.766;2022-08-19T13:04:11;100651.28;;;25.52;36.47
71948;BME280;59820;55.076;38.766;2022-08-19T13:06:37;100671.97;;;25.70;36.67
71948;BME280;59820;55.076;38.766;2022-08-19T13:09:04;100656.13;;;25.75;36.74
71948;BME280;59820;55.076;38.766;2022-08-19T13:11:31;100657.34;;;25.89;36.62
71948;BME280;59820;55.076;38.766;2022-08-19T13:14:37;100655.31;;;25.99;36.21
71948;BME280;59820;55.076;38.766;2022-08-19T13:17:03;100654.50;;;25.99;36.24
71948;BME280;59820;55.076;38.766;2022-08-19T13:19:30;100656.91;;;26.10;36.63
71948;BME280;59820;55.076;38.766;2022-08-19T13:21:57;100659.28;;;26.05;35.91
71948;BME280;59820;55.076;38.766;2022-08-19T13:24:24;100670.72;;;25.99;36.09
71948;BME280;59820;55.076;38.766;2022-08-19T13:26:50;100664.13;;;25.93;36.34
71948;BME280;59820;55.076;38.766;2022-08-19T13:29:16;100647.50;;;25.80;36.87
71948;BME280;59820;55.076;38.766;2022-08-19T13:32:01;100639.56;;;25.78;37.00
71948;BME280;59820;55.076;38.766;2022-08-19T13:34:45;100644.78;;;25.71;36.50
71948;BME280;59820;55.076;38.766;2022-08-19T13:37:13;100661.88;;;25.80;36.95
71948;BME280;59820;55.076;38.766;2022-08-19T13:39:39;100650.72;;;25.75;36.88
71948;BME280;59820;55.076;38.766;2022-08-19T13:42:06;100649.97;;;25.65;37.08
71948;BME280;59820;55.076;38.766;2022-08-19T13:44:33;100637.09;;;25.50;37.11
71948;BME280;59820;55.076;38.766;2022-08-19T13:47:04;100646.59;;;25.54;37.79
71948;BME280;59820;55.076;38.766;2022-08-19T13:49:35;100651.66;;;25.57;36.56
71948;BME280;59820;55.076;38.766;2022-08-19T13:52:04;100652.34;;;25.60;36.79
71948;BME280;59820;55.076;38.766;2022-08-19T13:54:30;100656.41;;;25.64;37.01
71948;BME280;59820;55.076;38.766;2022-08-19T13:56:56;100663.88;;;25.70;36.68
71948;BME280;59820;55.076;38.766;2022-08-19T13:59:22;100667.13;;;25.82;36.46
71948;BME280;59820;55.076;38.766;2022-08-19T14:01:48;100656.47;;;25.72;36.52
71948;BME280;59820;55.076;38.766;2022-08-19T14:04:14;100652.44;;;25.84;36.68
71948;BME280;59820;55.076;38.766;2022-08-19T14:06:41;100655.31;;;25.91;36.51